Nassau, Bahamas

9:25 AM EDT on September 05, 2015 (GMT -0400)
Nassau International | | Change Station
CLOSE
Current Station
Airport
Location: Nassau,
Elevation: 23 ft
Nearby Weather Stations

Elev 23 ft 25.04 °N, 77.47 °W | Updated 25 minutes ago

Mostly Cloudy
Mostly Cloudy
84 °F
Feels Like 92 °F
N
2
Wind Variable Wind from Variable

Today
High -- | Low -- °F
--% Chance of Precip.
Yesterday
High -- | Low -- °F
Precip. -- in
6:52 AM 7:24 PM
Waning Gibbous, 48% visible
Pressure 30.00 in
Visibility 6.2 miles
Clouds Scattered Clouds 1500 ft
Mostly Cloudy 22000 ft
Heat Index 92 °F
Dew Point 75 °F
Humidity 74%
Rainfall 0.00 in
Snow Depth Not available.
UV 2 out of 12
Pollen Not available.
Air Quality Not available.
Flu Activity Not available.
METAR MYNN 051300Z VRB02KT 9999 SCT015CB BKN220 29/24 A3000 RMK CB/TCU ALQDS
Pressure 30.00 in
Visibility 6.2 miles
Clouds Scattered Clouds 1500 ft
Mostly Cloudy 22000 ft
Heat Index 92 °F
Dew Point 75 °F
Humidity 74%
Rainfall 0.00 in
Snow Depth Not available.
UV 2 out of 12
Pollen Not available.
Air Quality Not available.
Flu Activity Not available.
METAR MYNN 051300Z VRB02KT 9999 SCT015CB BKN220 29/24 A3000 RMK CB/TCU ALQDS

10-Day Weather Forecast

×

Almanac

Astronomy

Sep. 05, 2015 Rise Set
Actual Time
Civil Twilight
Nautical Twilight
Astronomical Twilight
Moon
Length of Visible Light
Length of Day
Tomorrow will be .
, % of the Moon is Illuminated

Today's Extremes

Country Highs Country Lows

Community

WunderPhotos

Upload Photos

1,852,454 photos uploaded!

WunderBlogs® & News

Nearby

Air Quality

  Air Quality AQ Index Pollutant
Not available.

Snow Depth

Station Depth Elevation

Earthquake Activity

City Distance Mag. Time & Date
Minimum magnitude displayed is 2.5.

Coastal Water Temperatures

Place Temperature

Stations

Nearby Weather Stations

Station Location Temp. Windchill Dew Point Humidity Wind Precip. Elev Updated Type